Time;durP1;ratioP1;P1;durP2;ratioP2;P2;SDS_P1;SDS_P2;PMS_P1;PMS_P2;Temp;Humidity;BMP_temperature;BMP_pressure;BME280_temperature;BME280_humidity;BME280_pressure;Samples;Min_cycle;Max_cycle;Signal;HPM_P1;HPM_P2
2021/09/16 00:03:25;;;;;;;;;;;16.30;99.90;;;;;;8296302;28;20008;-64
2021/09/16 00:07:26;;;;;;;;;;;16.40;99.90;;;;;;8295722;28;19906;-64
2021/09/16 00:11:26;;;;;;;;;;;16.20;99.90;;;;;;8295993;28;19956;-65
2021/09/16 00:15:27;;;;;;;;;;;16.20;99.90;;;;;;8295134;28;19916;-65
2021/09/16 00:19:27;;;;;;;;;;;16.10;99.90;;;;;;8295748;28;19914;-64
2021/09/16 00:23:28;;;;;;;;;;;16.20;99.90;;;;;;8295291;28;19917;-65
2021/09/16 00:27:28;;;;;;;;;;;16.20;99.90;;;;;;8295218;28;20344;-65
2021/09/16 00:31:29;;;;;;;;;;;16.30;99.90;;;;;;8295312;28;20292;-64
2021/09/16 00:35:29;;;;;;;;;;;16.20;99.90;;;;;;8276715;28;20300;-64
2021/09/16 00:39:30;;;;;;;;;;;16.30;99.90;;;;;;8295187;28;20325;-64
2021/09/16 00:43:31;;;;;;;;;;;16.30;99.90;;;;;;8295195;28;19909;-64
2021/09/16 00:47:31;;;;;;;;;;;16.20;99.90;;;;;;8294497;28;20407;-64
2021/09/16 00:51:33;;;;;;;;;;;16.10;99.90;;;;;;8294656;28;19905;-64
2021/09/16 00:55:34;;;;;;;;;;;16.20;99.90;;;;;;8276696;28;19906;-65
2021/09/16 00:59:35;;;;;;;;;;;16.30;99.90;;;;;;8294400;28;20027;-65
2021/09/16 01:03:36;;;;;;;;;;;16.40;99.90;;;;;;8294621;28;20305;-65
2021/09/16 01:07:38;;;;;;;;;;;16.20;99.90;;;;;;8293913;28;19912;-64
2021/09/16 01:11:39;;;;;;;;;;;16.10;99.90;;;;;;8294249;28;19905;-65
2021/09/16 01:15:40;;;;;;;;;;;16.00;99.90;;;;;;8293744;28;19906;-65
2021/09/16 01:19:40;;;;;;;;;;;16.10;99.90;;;;;;8294240;28;19911;-64
2021/09/16 01:23:40;;;;;;;;;;;16.00;99.90;;;;;;8294020;28;20354;-64
2021/09/16 01:27:41;;;;;;;;;;;16.10;99.90;;;;;;8293543;28;20526;-64
2021/09/16 01:31:46;;;;;;;;;;;16.10;99.90;;;;;;8293709;28;19906;-64
2021/09/16 01:35:46;;;;;;;;;;;16.00;99.90;;;;;;8293190;28;19913;-64
2021/09/16 01:39:47;;;;;;;;;;;16.50;99.90;;;;;;8293753;28;19913;-64
2021/09/16 01:43:47;;;;;;;;;;;16.40;99.90;;;;;;8293536;28;20337;-65
2021/09/16 01:47:48;;;;;;;;;;;16.00;99.90;;;;;;8292136;28;19910;-64
2021/09/16 01:51:48;;;;;;;;;;;15.80;99.90;;;;;;8293343;28;19913;-64
2021/09/16 01:55:49;;;;;;;;;;;16.00;99.90;;;;;;8293010;28;19905;-64
2021/09/16 01:59:49;;;;;;;;;;;16.10;99.90;;;;;;8293308;28;19912;-65
2021/09/16 02:03:52;;;;;;;;;;;15.90;99.90;;;;;;8293206;28;20008;-64
2021/09/16 02:07:52;;;;;;;;;;;15.60;99.90;;;;;;8292966;28;19913;-64
2021/09/16 02:11:53;;;;;;;;;;;15.60;99.90;;;;;;8293545;28;20285;-64
2021/09/16 02:15:54;;;;;;;;;;;15.50;99.90;;;;;;8293049;28;19905;-64
2021/09/16 02:19:54;;;;;;;;;;;15.70;99.90;;;;;;8293278;28;19906;-64
2021/09/16 02:23:55;;;;;;;;;;;15.50;99.90;;;;;;8293284;28;19913;-64
2021/09/16 02:27:55;;;;;;;;;;;15.40;99.90;;;;;;8292686;28;19905;-64
2021/09/16 02:31:56;;;;;;;;;;;15.30;99.90;;;;;;8292834;28;19909;-65
2021/09/16 02:35:56;;;;;;;;;;;15.30;99.90;;;;;;8292323;28;19913;-64
2021/09/16 02:39:57;;;;;;;;;;;15.30;99.90;;;;;;8292998;28;19905;-64
2021/09/16 02:43:57;;;;;;;;;;;15.30;99.90;;;;;;8275415;28;20048;-64
2021/09/16 02:47:57;;;;;;;;;;;15.40;99.90;;;;;;8292176;28;20396;-64
2021/09/16 02:51:58;;;;;;;;;;;15.60;99.90;;;;;;8291861;28;20427;-64
2021/09/16 02:55:59;;;;;;;;;;;15.80;99.90;;;;;;8292311;28;19905;-64
2021/09/16 02:59:59;;;;;;;;;;;15.90;99.90;;;;;;8295719;28;19905;-64
2021/09/16 03:04:00;;;;;;;;;;;15.80;99.90;;;;;;8297022;28;20003;-64
2021/09/16 03:08:00;;;;;;;;;;;15.80;99.90;;;;;;8296542;28;19913;-64
2021/09/16 03:12:01;;;;;;;;;;;15.80;99.90;;;;;;8296781;28;19921;-65
2021/09/16 03:16:01;;;;;;;;;;;15.80;99.90;;;;;;8296219;28;20681;-64
2021/09/16 03:20:02;;;;;;;;;;;15.70;99.90;;;;;;8279557;28;19909;-64
2021/09/16 03:24:03;;;;;;;;;;;15.70;99.90;;;;;;8297635;28;20580;-64
2021/09/16 03:28:03;;;;;;;;;;;15.80;99.90;;;;;;8297222;28;19984;-64
2021/09/16 03:32:04;;;;;;;;;;;15.80;99.90;;;;;;8297266;28;19905;-64
2021/09/16 03:36:05;;;;;;;;;;;15.80;99.90;;;;;;8296171;28;19913;-65
2021/09/16 03:40:06;;;;;;;;;;;15.90;99.90;;;;;;8279489;28;20366;-65
2021/09/16 03:44:06;;;;;;;;;;;15.80;99.90;;;;;;8297049;28;19909;-64
2021/09/16 03:48:07;;;;;;;;;;;15.70;99.90;;;;;;8296460;28;19913;-64
2021/09/16 03:52:08;;;;;;;;;;;15.70;99.90;;;;;;8296450;28;19921;-64
2021/09/16 03:56:08;;;;;;;;;;;15.80;99.90;;;;;;8295799;28;20385;-64
2021/09/16 04:00:09;;;;;;;;;;;15.90;99.90;;;;;;8296018;28;19988;-64
2021/09/16 04:04:10;;;;;;;;;;;15.80;99.90;;;;;;8295817;28;19909;-64
2021/09/16 04:08:10;;;;;;;;;;;15.90;99.90;;;;;;8293397;28;19909;-64
2021/09/16 04:12:11;;;;;;;;;;;15.80;99.90;;;;;;8294439;28;19909;-64
2021/09/16 04:16:11;;;;;;;;;;;15.80;99.90;;;;;;8277174;28;19955;-64
2021/09/16 04:20:12;;;;;;;;;;;16.00;99.90;;;;;;8295352;28;19909;-64
2021/09/16 04:24:13;;;;;;;;;;;16.00;99.90;;;;;;8295470;28;19931;-64
2021/09/16 04:28:14;;;;;;;;;;;15.90;99.90;;;;;;8295144;28;19944;-64
2021/09/16 04:32:14;;;;;;;;;;;16.00;99.90;;;;;;8277073;28;19917;-64
2021/09/16 04:36:15;;;;;;;;;;;15.90;99.90;;;;;;8294349;28;20555;-64
2021/09/16 04:40:15;;;;;;;;;;;16.00;99.90;;;;;;8293739;28;20365;-64
2021/09/16 04:44:16;;;;;;;;;;;15.90;99.90;;;;;;8293458;28;19952;-64
2021/09/16 04:48:16;;;;;;;;;;;15.90;99.90;;;;;;8293336;28;19995;-64
2021/09/16 04:52:17;;;;;;;;;;;15.80;99.90;;;;;;8292131;28;19905;-64
2021/09/16 04:56:17;;;;;;;;;;;15.90;99.90;;;;;;8273363;28;19909;-64
2021/09/16 05:00:18;;;;;;;;;;;15.90;99.90;;;;;;8292454;28;19967;-64
2021/09/16 05:04:18;;;;;;;;;;;16.00;99.90;;;;;;8273574;28;19913;-64
2021/09/16 05:08:19;;;;;;;;;;;16.10;99.90;;;;;;8262788;28;19917;-64
2021/09/16 05:12:19;;;;;;;;;;;16.30;99.90;;;;;;8262310;28;19906;-64
2021/09/16 05:16:20;;;;;;;;;;;16.50;99.90;;;;;;8261575;28;19959;-64
2021/09/16 05:20:20;;;;;;;;;;;16.40;99.90;;;;;;8288151;28;19905;-64
2021/09/16 05:24:21;;;;;;;;;;;16.20;99.90;;;;;;8292115;28;19963;-64
2021/09/16 05:28:21;;;;;;;;;;;16.20;99.90;;;;;;8291166;28;20305;-64
2021/09/16 05:32:22;;;;;;;;;;;16.10;99.90;;;;;;8291236;28;19948;-64
2021/09/16 05:36:22;;;;;;;;;;;16.10;99.90;;;;;;8290665;28;19924;-64
2021/09/16 05:40:22;;;;;;;;;;;16.10;99.90;;;;;;8293240;28;20532;-64
2021/09/16 05:44:23;;;;;;;;;;;16.10;99.90;;;;;;8293280;28;19917;-64
2021/09/16 05:48:24;;;;;;;;;;;16.10;99.90;;;;;;8293142;28;19913;-64
2021/09/16 05:52:25;;;;;;;;;;;16.20;99.90;;;;;;8293332;28;19931;-64
2021/09/16 05:56:25;;;;;;;;;;;16.20;99.90;;;;;;8292939;28;19909;-64
2021/09/16 06:00:26;;;;;;;;;;;16.30;99.90;;;;;;8293161;28;20283;-64
2021/09/16 06:04:26;;;;;;;;;;;16.30;99.90;;;;;;8293088;28;20373;-64
2021/09/16 06:08:27;;;;;;;;;;;16.30;99.90;;;;;;8293144;28;19906;-64
2021/09/16 06:12:30;;;;;;;;;;;16.30;99.90;;;;;;8293077;28;19940;-64
2021/09/16 06:16:30;;;;;;;;;;;16.40;99.90;;;;;;8292543;28;19912;-64
2021/09/16 06:20:30;;;;;;;;;;;16.50;99.90;;;;;;8292189;28;19905;-64
2021/09/16 06:24:31;;;;;;;;;;;16.60;99.90;;;;;;8275184;28;19967;-64
2021/09/16 06:28:31;;;;;;;;;;;16.90;99.90;;;;;;8293078;28;20000;-64
2021/09/16 06:32:33;;;;;;;;;;;17.10;99.90;;;;;;8274875;28;20289;-64
2021/09/16 06:36:33;;;;;;;;;;;17.10;99.90;;;;;;8298599;28;20397;-64
2021/09/16 06:40:34;;;;;;;;;;;17.30;99.90;;;;;;8298999;28;19906;-64
2021/09/16 06:44:34;;;;;;;;;;;17.60;99.90;;;;;;8298445;28;19909;-64
2021/09/16 06:48:35;;;;;;;;;;;17.90;99.90;;;;;;8298643;28;19906;-64
2021/09/16 06:52:35;;;;;;;;;;;18.10;99.90;;;;;;8298502;28;19932;-64
2021/09/16 06:56:36;;;;;;;;;;;18.30;99.90;;;;;;8298174;28;19905;-64
2021/09/16 07:00:36;;;;;;;;;;;18.50;99.90;;;;;;8298337;28;19909;-65
2021/09/16 07:04:37;;;;;;;;;;;18.60;99.90;;;;;;8297723;28;19971;-64
2021/09/16 07:08:38;;;;;;;;;;;18.90;99.90;;;;;;8298109;28;19964;-64
2021/09/16 07:12:38;;;;;;;;;;;19.00;99.90;;;;;;8297929;28;20524;-64
2021/09/16 07:16:39;;;;;;;;;;;19.10;99.90;;;;;;8297380;28;20024;-64
2021/09/16 07:20:39;;;;;;;;;;;19.30;99.90;;;;;;8296775;28;19916;-64
2021/09/16 07:24:39;;;;;;;;;;;19.30;99.90;;;;;;8297305;28;20518;-64
2021/09/16 07:28:40;;;;;;;;;;;19.20;99.90;;;;;;8297591;28;20293;-64
2021/09/16 07:32:40;;;;;;;;;;;19.20;99.90;;;;;;8297286;28;20504;-64
2021/09/16 07:36:43;;;;;;;;;;;19.10;99.90;;;;;;8296667;28;20396;-64
2021/09/16 07:40:44;;;;;;;;;;;19.10;99.90;;;;;;8296736;28;19909;-64
2021/09/16 07:44:44;;;;;;;;;;;19.30;99.90;;;;;;8294533;28;19956;-64
2021/09/16 07:48:45;;;;;;;;;;;19.40;99.90;;;;;;8296212;28;20408;-64
2021/09/16 07:52:45;;;;;;;;;;;19.50;99.90;;;;;;8295812;28;19909;-64
2021/09/16 07:56:46;;;;;;;;;;;19.70;99.90;;;;;;8296124;28;19916;-64
2021/09/16 08:00:47;;;;;;;;;;;19.80;99.90;;;;;;8297010;28;19905;-64
2021/09/16 08:04:47;;;;;;;;;;;20.00;99.90;;;;;;8296413;28;20426;-64
2021/09/16 08:08:47;;;;;;;;;;;20.30;99.90;;;;;;8296661;28;20156;-65
2021/09/16 08:12:48;;;;;;;;;;;20.40;99.90;;;;;;8278530;28;20297;-65
2021/09/16 08:16:49;;;;;;;;;;;20.70;99.90;;;;;;8278160;28;20000;-65
2021/09/16 08:20:50;;;;;;;;;;;20.80;99.90;;;;;;8294998;28;19931;-64
2021/09/16 08:24:50;;;;;;;;;;;20.70;99.90;;;;;;8294972;28;20011;-65
2021/09/16 08:28:51;;;;;;;;;;;21.30;99.90;;;;;;8296174;28;19909;-65
2021/09/16 08:32:51;;;;;;;;;;;21.80;99.90;;;;;;8294615;28;19932;-65
2021/09/16 08:36:52;;;;;;;;;;;21.90;99.90;;;;;;8294224;28;19913;-66
2021/09/16 08:40:53;;;;;;;;;;;21.80;99.90;;;;;;8294034;28;19913;-65
2021/09/16 08:44:54;;;;;;;;;;;22.00;99.90;;;;;;8294040;28;19955;-65
2021/09/16 08:48:55;;;;;;;;;;;21.70;99.90;;;;;;8277262;28;19909;-65
2021/09/16 08:52:55;;;;;;;;;;;21.20;99.90;;;;;;8293333;28;19963;-65
2021/09/16 08:56:56;;;;;;;;;;;21.10;99.90;;;;;;8292907;28;19905;-65
2021/09/16 09:00:57;;;;;;;;;;;21.20;99.90;;;;;;8293871;28;19932;-65
2021/09/16 09:04:58;;;;;;;;;;;21.70;99.90;;;;;;8293573;28;19913;-65
2021/09/16 09:09:13;;;;;;;;;;;21.80;99.90;;;;;;8293862;28;19929;-65
2021/09/16 09:13:15;;;;;;;;;;;22.20;99.90;;;;;;8276599;28;20373;-65
2021/09/16 09:17:16;;;;;;;;;;;22.30;99.90;;;;;;8293390;28;20412;-65
2021/09/16 09:21:17;;;;;;;;;;;22.00;99.90;;;;;;8291748;28;19944;-65
2021/09/16 09:25:18;;;;;;;;;;;21.70;99.90;;;;;;8292657;28;19917;-65
2021/09/16 09:29:19;;;;;;;;;;;21.90;99.90;;;;;;8293314;28;20289;-65
2021/09/16 09:33:25;;;;;;;;;;;22.00;99.90;;;;;;8293822;28;19911;-65
2021/09/16 09:37:25;;;;;;;;;;;22.70;99.90;;;;;;8293518;28;20293;-65
2021/09/16 09:41:33;;;;;;;;;;;22.40;99.90;;;;;;8291682;28;19916;-65
2021/09/16 09:45:34;;;;;;;;;;;22.40;99.90;;;;;;8287619;28;19940;-65
2021/09/16 09:49:36;;;;;;;;;;;22.60;99.90;;;;;;8275408;28;20009;-64
2021/09/16 09:53:37;;;;;;;;;;;22.20;99.90;;;;;;8293232;28;19948;-65
2021/09/16 09:57:38;;;;;;;;;;;21.40;99.90;;;;;;8274985;28;19905;-64
2021/09/16 10:01:38;;;;;;;;;;;20.90;99.90;;;;;;8292225;28;20043;-64
2021/09/16 10:05:39;;;;;;;;;;;20.40;99.90;;;;;;8292872;28;19932;-64
2021/09/16 10:09:39;;;;;;;;;;;20.10;99.90;;;;;;8279250;28;19905;-64
2021/09/16 10:13:39;;;;;;;;;;;20.20;99.90;;;;;;8299972;28;19956;-64
2021/09/16 10:17:40;;;;;;;;;;;20.50;99.90;;;;;;8299438;28;20035;-64
2021/09/16 10:21:41;;;;;;;;;;;20.60;99.90;;;;;;8297594;28;19909;-64
2021/09/16 10:25:44;;;;;;;;;;;20.80;99.90;;;;;;8294506;28;20526;-64
2021/09/16 10:29:45;;;;;;;;;;;21.10;99.90;;;;;;8277327;28;19909;-64
2021/09/16 10:33:45;;;;;;;;;;;21.60;99.90;;;;;;8280271;28;19913;-64
2021/09/16 10:37:46;;;;;;;;;;;22.60;99.90;;;;;;8297433;28;19919;-65
2021/09/16 10:41:46;;;;;;;;;;;22.90;99.90;;;;;;8298507;28;19905;-64
2021/09/16 10:45:47;;;;;;;;;;;23.10;99.90;;;;;;8298059;28;19935;-65
2021/09/16 10:49:51;;;;;;;;;;;23.40;99.90;;;;;;8298023;28;19952;-65
2021/09/16 10:53:51;;;;;;;;;;;25.00;99.90;;;;;;8297599;28;20297;-65
2021/09/16 10:57:52;;;;;;;;;;;26.40;99.90;;;;;;8278522;28;19952;-65
2021/09/16 11:01:53;;;;;;;;;;;26.40;99.90;;;;;;8292816;28;19905;-65
2021/09/16 11:05:55;;;;;;;;;;;25.20;99.90;;;;;;8294180;28;20000;-65
2021/09/16 11:09:56;;;;;;;;;;;23.60;99.90;;;;;;8294786;28;19906;-65
2021/09/16 11:13:57;;;;;;;;;;;22.60;99.90;;;;;;8294582;28;19921;-65
2021/09/16 11:18:02;;;;;;;;;;;22.20;99.90;;;;;;8278498;28;20366;-64
2021/09/16 11:22:02;;;;;;;;;;;22.30;99.90;;;;;;8293887;28;19906;-64
2021/09/16 11:26:03;;;;;;;;;;;22.50;99.90;;;;;;8278648;28;19909;-64
2021/09/16 11:30:04;;;;;;;;;;;23.00;99.90;;;;;;8295744;28;19910;-64
2021/09/16 11:34:08;;;;;;;;;;;23.10;99.90;;;;;;8285119;28;19909;-65
2021/09/16 11:38:09;;;;;;;;;;;22.40;99.90;;;;;;8277246;28;19917;-64
2021/09/16 11:42:15;;;;;;;;;;;21.90;99.90;;;;;;8295315;28;20451;-64
2021/09/16 11:46:18;;;;;;;;;;;21.40;99.90;;;;;;8294916;28;19913;-64
2021/09/16 11:50:27;;;;;;;;;;;20.60;99.90;;;;;;8296522;28;19921;-64
2021/09/16 11:54:28;;;;;;;;;;;20.10;99.90;;;;;;8295990;28;19952;-64
2021/09/16 11:58:30;;;;;;;;;;;19.80;99.90;;;;;;8278289;28;19913;-64
2021/09/16 12:02:46;;;;;;;;;;;19.80;99.90;;;;;;8277508;28;19905;-64
2021/09/16 12:06:54;;;;;;;;;;;20.00;99.90;;;;;;8294895;28;20282;-64
2021/09/16 12:11:02;;;;;;;;;;;19.90;99.90;;;;;;8295859;28;19905;-64
2021/09/16 12:15:03;;;;;;;;;;;19.90;99.90;;;;;;8295404;28;19964;-64
2021/09/16 12:19:06;;;;;;;;;;;20.00;99.90;;;;;;8295246;28;20394;-64
2021/09/16 12:23:11;;;;;;;;;;;20.40;99.90;;;;;;8295172;28;19905;-64
2021/09/16 12:27:12;;;;;;;;;;;20.20;99.90;;;;;;8291473;28;20291;-64
2021/09/16 12:31:13;;;;;;;;;;;20.20;99.90;;;;;;8276124;28;19980;-64
2021/09/16 12:35:17;;;;;;;;;;;20.10;99.90;;;;;;8275845;28;19944;-64
2021/09/16 12:39:18;;;;;;;;;;;20.10;99.90;;;;;;8293568;28;20432;-64
2021/09/16 12:43:18;;;;;;;;;;;19.80;99.90;;;;;;8285334;28;19912;-64
2021/09/16 12:47:19;;;;;;;;;;;19.60;99.90;;;;;;8273708;28;19996;-64
2021/09/16 12:51:20;;;;;;;;;;;19.30;99.90;;;;;;8293282;28;19909;-64
2021/09/16 12:55:20;;;;;;;;;;;18.90;99.90;;;;;;8294439;28;19913;-64
2021/09/16 12:59:24;;;;;;;;;;;18.70;99.90;;;;;;8287638;28;19963;-63
2021/09/16 13:03:24;;;;;;;;;;;18.50;99.90;;;;;;8294294;28;19916;-64
2021/09/16 13:07:25;;;;;;;;;;;18.30;99.90;;;;;;8293717;28;19909;-63
2021/09/16 13:11:26;;;;;;;;;;;18.20;99.90;;;;;;8294546;28;20312;-63
2021/09/16 13:15:27;;;;;;;;;;;18.30;99.90;;;;;;8293695;28;19910;-64
2021/09/16 13:19:27;;;;;;;;;;;18.60;99.90;;;;;;8276345;28;19987;-64
2021/09/16 13:23:28;;;;;;;;;;;18.80;99.90;;;;;;8293980;28;20266;-64
2021/09/16 13:27:29;;;;;;;;;;;19.30;99.90;;;;;;8292060;28;20004;-64
2021/09/16 13:31:29;;;;;;;;;;;19.70;99.90;;;;;;8292439;28;19909;-63
2021/09/16 13:35:30;;;;;;;;;;;19.80;99.90;;;;;;8292022;28;20012;-64
2021/09/16 13:39:30;;;;;;;;;;;20.10;99.90;;;;;;8291033;28;19948;-64
2021/09/16 13:43:32;;;;;;;;;;;21.00;99.90;;;;;;8272607;28;19909;-64
2021/09/16 13:47:32;;;;;;;;;;;21.70;99.90;;;;;;8288695;28;20413;-64
2021/09/16 13:51:33;;;;;;;;;;;21.80;99.90;;;;;;8287371;28;19916;-64
2021/09/16 13:55:34;;;;;;;;;;;21.70;99.90;;;;;;8289472;28;19909;-64
2021/09/16 13:59:34;;;;;;;;;;;20.80;99.90;;;;;;8290400;28;19928;-64
2021/09/16 14:03:35;;;;;;;;;;;20.30;99.90;;;;;;8290500;28;19928;-64
2021/09/16 14:07:35;;;;;;;;;;;20.80;99.90;;;;;;8272883;28;19905;-65
2021/09/16 14:11:36;;;;;;;;;;;21.20;99.90;;;;;;8291660;28;19952;-66
2021/09/16 14:15:36;;;;;;;;;;;21.00;99.90;;;;;;8273879;28;19905;-66
2021/09/16 14:19:37;;;;;;;;;;;20.10;99.90;;;;;;8273417;28;19909;-66
2021/09/16 14:23:37;;;;;;;;;;;19.70;99.90;;;;;;8291585;28;19920;-66
2021/09/16 14:27:38;;;;;;;;;;;19.60;99.90;;;;;;8273023;28;19905;-66
2021/09/16 14:31:39;;;;;;;;;;;20.00;99.90;;;;;;8291108;28;19917;-65
2021/09/16 14:35:39;;;;;;;;;;;20.30;99.90;;;;;;8291646;28;19999;-66
2021/09/16 14:39:40;;;;;;;;;;;20.50;99.90;;;;;;8290312;28;19910;-68
2021/09/16 14:43:40;;;;;;;;;;;20.30;99.90;;;;;;8286306;28;19975;-65
2021/09/16 14:47:41;;;;;;;;;;;19.80;99.90;;;;;;8289839;28;20003;-67
2021/09/16 14:51:42;;;;;;;;;;;19.70;99.90;;;;;;8290514;28;19919;-66
2021/09/16 14:55:42;;;;;;;;;;;19.70;99.90;;;;;;8294302;28;19910;-66
2021/09/16 14:59:42;;;;;;;;;;;20.30;99.90;;;;;;8278963;28;20496;-65
2021/09/16 15:03:43;;;;;;;;;;;20.50;99.90;;;;;;8296941;28;19913;-66
2021/09/16 15:07:44;;;;;;;;;;;20.40;99.90;;;;;;8293967;28;19912;-65
2021/09/16 15:11:44;;;;;;;;;;;20.40;99.90;;;;;;8280431;28;19905;-65
2021/09/16 15:15:45;;;;;;;;;;;20.00;99.90;;;;;;8297105;28;20562;-65
2021/09/16 15:19:45;;;;;;;;;;;19.70;99.90;;;;;;8298035;28;19909;-65
2021/09/16 15:23:45;;;;;;;;;;;19.40;99.90;;;;;;8280249;28;19964;-65
2021/09/16 15:27:46;;;;;;;;;;;19.20;99.90;;;;;;8297373;28;20332;-65
2021/09/16 15:31:47;;;;;;;;;;;19.20;99.90;;;;;;8297529;28;20020;-65
2021/09/16 15:35:47;;;;;;;;;;;18.80;99.90;;;;;;8279703;28;19914;-65
2021/09/16 15:39:48;;;;;;;;;;;18.70;99.90;;;;;;8297565;28;19978;-65
2021/09/16 15:43:48;;;;;;;;;;;18.60;99.90;;;;;;8279494;28;19909;-65
2021/09/16 15:47:49;;;;;;;;;;;18.40;99.90;;;;;;8296601;28;19924;-65
2021/09/16 15:51:49;;;;;;;;;;;18.40;99.90;;;;;;8297113;28;19932;-65
2021/09/16 15:55:50;;;;;;;;;;;18.20;99.90;;;;;;8296750;28;19943;-65
2021/09/16 15:59:50;;;;;;;;;;;18.20;99.90;;;;;;8297022;28;20274;-65
2021/09/16 16:03:51;;;;;;;;;;;18.30;99.90;;;;;;8279111;28;19917;-65
2021/09/16 16:07:52;;;;;;;;;;;18.00;99.90;;;;;;8294953;28;19909;-65
2021/09/16 16:11:53;;;;;;;;;;;17.80;99.90;;;;;;8296731;28;19921;-65
2021/09/16 16:15:54;;;;;;;;;;;17.60;99.90;;;;;;8295547;28;19905;-65
2021/09/16 16:19:54;;;;;;;;;;;17.30;99.90;;;;;;8296398;28;19905;-65
2021/09/16 16:23:55;;;;;;;;;;;17.40;99.90;;;;;;8295267;28;19914;-65
2021/09/16 16:27:55;;;;;;;;;;;17.50;99.90;;;;;;8295479;28;19905;-65
2021/09/16 16:31:57;;;;;;;;;;;17.70;99.90;;;;;;8295645;28;19905;-66
2021/09/16 16:35:57;;;;;;;;;;;17.90;99.90;;;;;;8295574;28;19967;-65
2021/09/16 16:39:58;;;;;;;;;;;18.10;99.90;;;;;;8295739;28;19905;-65
2021/09/16 16:43:58;;;;;;;;;;;18.20;99.90;;;;;;8295316;28;19916;-65
2021/09/16 16:47:59;;;;;;;;;;;18.00;99.90;;;;;;8294935;28;19909;-65
2021/09/16 16:51:59;;;;;;;;;;;17.80;99.90;;;;;;8295297;28;19910;-65
2021/09/16 16:56:00;;;;;;;;;;;17.70;99.90;;;;;;8295219;28;19940;-65
2021/09/16 17:00:00;;;;;;;;;;;17.50;99.90;;;;;;8295258;28;19992;-65
2021/09/16 17:04:01;;;;;;;;;;;17.50;99.90;;;;;;8277305;28;20411;-65
2021/09/16 17:08:03;;;;;;;;;;;17.20;99.90;;;;;;8294012;28;19989;-65
2021/09/16 17:12:04;;;;;;;;;;;17.30;99.90;;;;;;8294294;28;19988;-65
2021/09/16 17:16:04;;;;;;;;;;;17.10;99.90;;;;;;8275977;28;19909;-65
2021/09/16 17:20:06;;;;;;;;;;;16.90;99.90;;;;;;8292714;28;19916;-65
2021/09/16 17:24:06;;;;;;;;;;;16.80;99.90;;;;;;8275836;28;20397;-65
2021/09/16 17:28:07;;;;;;;;;;;16.70;99.90;;;;;;8292897;28;20000;-65
2021/09/16 17:32:07;;;;;;;;;;;16.70;99.90;;;;;;8293107;28;19910;-65
2021/09/16 17:36:08;;;;;;;;;;;16.60;99.90;;;;;;8291166;28;19964;-65
2021/09/16 17:40:09;;;;;;;;;;;16.50;99.90;;;;;;8289017;28;20416;-65
2021/09/16 17:44:10;;;;;;;;;;;16.50;99.90;;;;;;8271850;28;19932;-65
2021/09/16 17:48:11;;;;;;;;;;;16.50;99.90;;;;;;8284234;28;20434;-65
2021/09/16 17:52:11;;;;;;;;;;;16.40;99.90;;;;;;8290239;28;20313;-65
2021/09/16 17:56:12;;;;;;;;;;;16.60;99.90;;;;;;8292121;28;19906;-65
2021/09/16 18:00:14;;;;;;;;;;;16.60;99.90;;;;;;8290921;28;19905;-65
2021/09/16 18:04:15;;;;;;;;;;;16.30;99.90;;;;;;8272987;28;19971;-65
2021/09/16 18:08:15;;;;;;;;;;;16.20;99.90;;;;;;8289694;28;19924;-65
2021/09/16 18:12:16;;;;;;;;;;;16.30;99.90;;;;;;8287944;28;19918;-64
2021/09/16 18:16:16;;;;;;;;;;;16.20;99.90;;;;;;8285422;28;19936;-64
2021/09/16 18:20:17;;;;;;;;;;;16.00;99.90;;;;;;8283988;28;19918;-65
2021/09/16 18:24:17;;;;;;;;;;;16.10;99.90;;;;;;8268534;28;19924;-64
2021/09/16 18:28:18;;;;;;;;;;;16.00;99.90;;;;;;8287311;28;19940;-64
2021/09/16 18:32:18;;;;;;;;;;;15.90;99.90;;;;;;8291524;28;19948;-64
2021/09/16 18:36:19;;;;;;;;;;;16.00;99.90;;;;;;8293320;28;19921;-65
2021/09/16 18:40:20;;;;;;;;;;;15.90;99.90;;;;;;8289093;28;20385;-64
2021/09/16 18:44:21;;;;;;;;;;;15.90;99.90;;;;;;8286041;28;19924;-64
2021/09/16 18:48:21;;;;;;;;;;;15.80;99.90;;;;;;8285969;28;19913;-65
2021/09/16 18:52:22;;;;;;;;;;;15.70;99.90;;;;;;8285453;28;20331;-65
2021/09/16 18:56:23;;;;;;;;;;;15.60;99.90;;;;;;8290178;28;19909;-65
2021/09/16 19:00:23;;;;;;;;;;;15.70;99.90;;;;;;8279505;28;19913;-65
2021/09/16 19:04:24;;;;;;;;;;;15.80;99.90;;;;;;8278206;28;19943;-66
2021/09/16 19:08:24;;;;;;;;;;;15.80;99.90;;;;;;8291675;28;19913;-65
2021/09/16 19:12:25;;;;;;;;;;;15.70;99.90;;;;;;8287858;28;20401;-65
2021/09/16 19:16:26;;;;;;;;;;;15.80;99.90;;;;;;8289542;28;19919;-65
2021/09/16 19:20:26;;;;;;;;;;;15.80;99.90;;;;;;8288764;28;19947;-65
2021/09/16 19:24:27;;;;;;;;;;;15.60;99.90;;;;;;8286144;28;20007;-65
2021/09/16 19:28:27;;;;;;;;;;;15.60;99.90;;;;;;8291419;28;20012;-65
2021/09/16 19:32:28;;;;;;;;;;;15.60;99.90;;;;;;8259925;28;21021;-65
2021/09/16 19:36:28;;;;;;;;;;;15.60;99.90;;;;;;8280822;28;19921;-65
2021/09/16 19:40:29;;;;;;;;;;;15.60;99.90;;;;;;8267579;28;20021;-65
2021/09/16 19:44:30;;;;;;;;;;;15.50;99.90;;;;;;8284286;28;19969;-65
2021/09/16 19:48:30;;;;;;;;;;;15.40;99.90;;;;;;8285825;28;19920;-65
2021/09/16 19:52:31;;;;;;;;;;;15.30;99.90;;;;;;8291842;28;20412;-65
2021/09/16 19:56:31;;;;;;;;;;;15.30;99.90;;;;;;8291005;28;20305;-71
2021/09/16 20:00:32;;;;;;;;;;;15.20;99.90;;;;;;8291959;28;19956;-71
2021/09/16 20:04:33;;;;;;;;;;;15.20;99.90;;;;;;8291240;28;20641;-71
2021/09/16 20:08:33;;;;;;;;;;;15.30;99.90;;;;;;8271476;28;19999;-71
2021/09/16 20:12:34;;;;;;;;;;;15.10;99.90;;;;;;8291886;28;19910;-71
2021/09/16 20:16:34;;;;;;;;;;;15.00;99.90;;;;;;8288277;28;20000;-64
2021/09/16 20:20:34;;;;;;;;;;;15.00;99.90;;;;;;8293699;28;20459;-64
2021/09/16 20:24:35;;;;;;;;;;;14.80;99.90;;;;;;8294181;28;20377;-64
2021/09/16 20:28:36;;;;;;;;;;;14.60;99.90;;;;;;8294304;28;20010;-64
2021/09/16 20:32:36;;;;;;;;;;;14.40;99.90;;;;;;8286480;28;19917;-64
2021/09/16 20:36:37;;;;;;;;;;;14.30;99.90;;;;;;8294060;28;20290;-64
2021/09/16 20:40:38;;;;;;;;;;;14.30;99.90;;;;;;8293484;28;19905;-64
2021/09/16 20:44:38;;;;;;;;;;;14.30;99.90;;;;;;8283846;28;19914;-64
2021/09/16 20:48:39;;;;;;;;;;;14.20;99.90;;;;;;8293755;28;19920;-64
2021/09/16 20:52:40;;;;;;;;;;;14.00;99.90;;;;;;8292459;28;20024;-64
2021/09/16 20:56:41;;;;;;;;;;;14.10;99.90;;;;;;8293360;28;19909;-64
2021/09/16 21:00:41;;;;;;;;;;;14.00;99.90;;;;;;8276259;28;19916;-64
2021/09/16 21:04:42;;;;;;;;;;;13.90;99.90;;;;;;8292890;28;19909;-64
2021/09/16 21:08:42;;;;;;;;;;;13.60;99.90;;;;;;8291786;28;20281;-64
2021/09/16 21:12:42;;;;;;;;;;;13.50;99.90;;;;;;8274210;28;19909;-64
2021/09/16 21:16:43;;;;;;;;;;;13.70;99.90;;;;;;8291436;28;20027;-64
2021/09/16 21:20:43;;;;;;;;;;;14.00;99.90;;;;;;8292153;28;20600;-64
2021/09/16 21:24:44;;;;;;;;;;;13.80;99.90;;;;;;8275894;28;19910;-64
2021/09/16 21:28:44;;;;;;;;;;;13.70;99.90;;;;;;8293927;28;19972;-64
2021/09/16 21:32:45;;;;;;;;;;;13.60;99.90;;;;;;8276360;28;19991;-64
2021/09/16 21:36:45;;;;;;;;;;;13.60;99.90;;;;;;8293206;28;20493;-64
2021/09/16 21:40:46;;;;;;;;;;;13.60;99.90;;;;;;8276322;28;19912;-64
2021/09/16 21:44:46;;;;;;;;;;;13.70;99.90;;;;;;8293440;28;19952;-64
2021/09/16 21:48:47;;;;;;;;;;;13.60;99.90;;;;;;8293537;28;19945;-64
2021/09/16 21:52:47;;;;;;;;;;;13.50;99.90;;;;;;8293428;28;19910;-64
2021/09/16 21:56:48;;;;;;;;;;;13.30;99.90;;;;;;8293292;28;19914;-64
2021/09/16 22:00:49;;;;;;;;;;;13.10;99.90;;;;;;8293058;28;19913;-64
2021/09/16 22:04:49;;;;;;;;;;;12.90;99.90;;;;;;8274538;28;19917;-64
2021/09/16 22:08:50;;;;;;;;;;;13.00;99.90;;;;;;8293168;28;20024;-64
2021/09/16 22:12:51;;;;;;;;;;;12.90;99.90;;;;;;8293287;28;20509;-64
2021/09/16 22:16:51;;;;;;;;;;;13.10;99.90;;;;;;8275403;28;19913;-64
2021/09/16 22:20:52;;;;;;;;;;;13.10;99.90;;;;;;8292794;28;19909;-64
2021/09/16 22:24:52;;;;;;;;;;;13.10;99.90;;;;;;8292442;28;19996;-64
2021/09/16 22:28:53;;;;;;;;;;;13.00;99.90;;;;;;8293184;28;19905;-64
2021/09/16 22:32:53;;;;;;;;;;;13.00;99.90;;;;;;8292119;28;19906;-64
2021/09/16 22:36:54;;;;;;;;;;;13.00;99.90;;;;;;8292512;28;19917;-64
2021/09/16 22:40:54;;;;;;;;;;;13.00;99.90;;;;;;8293195;28;19905;-64
2021/09/16 22:44:55;;;;;;;;;;;13.20;99.90;;;;;;8293042;28;19952;-64
2021/09/16 22:48:55;;;;;;;;;;;13.10;99.90;;;;;;8293116;28;19905;-64
2021/09/16 22:52:56;;;;;;;;;;;13.10;99.90;;;;;;8292635;28;19905;-64
2021/09/16 22:56:56;;;;;;;;;;;13.20;99.90;;;;;;8275168;28;19909;-64
2021/09/16 23:00:57;;;;;;;;;;;13.40;99.90;;;;;;8293175;28;19909;-64
2021/09/16 23:04:57;;;;;;;;;;;13.30;99.90;;;;;;8291992;28;19910;-64
2021/09/16 23:08:58;;;;;;;;;;;13.30;99.90;;;;;;8292660;28;20285;-64
2021/09/16 23:12:58;;;;;;;;;;;13.40;99.90;;;;;;8292671;28;19967;-64
2021/09/16 23:17:00;;;;;;;;;;;13.30;99.90;;;;;;8296064;28;20376;-64
2021/09/16 23:21:00;;;;;;;;;;;13.30;99.90;;;;;;8280528;28;20381;-64